Time;durP1;ratioP1;P1;durP2;ratioP2;P2;SDS_P1;SDS_P2;PMS_P1;PMS_P2;Temp;Humidity;BMP_temperature;BMP_pressure;BME280_temperature;BME280_humidity;BME280_pressure;Samples;Min_cycle;Max_cycle;Signal;HPM_P1;HPM_P2
2020/08/16 14:20:55;;;;;;;5.25;4.8;;;;;;;42.99;26.70996;94752.26;;;;
2020/08/16 14:22:02;;;;;;;5.25;4.8;;;;;;;42.99;26.70996;94752.26;;;;
2020/08/16 14:23:08;;;;;;;5.25;4.8;;;;;;;42.99;26.70996;94752.26;;;;
2020/08/16 14:24:13;;;;;;;5.25;4.8;;;;;;;42.99;26.70996;94752.26;;;;
2020/08/16 14:25:17;;;;;;;5.25;4.8;;;;;;;42.99;26.70996;94752.26;;;;
2020/08/16 14:26:24;;;;;;;5.25;4.8;;;;;;;42.99;26.70996;94752.26;;;;
2020/08/16 14:27:33;;;;;;;5.25;4.8;;;;;;;42.99;26.70996;94752.26;;;;
2020/08/16 14:28:38;;;;;;;5.25;4.8;;;;;;;42.99;26.70996;94752.26;;;;
2020/08/16 14:29:46;;;;;;;5.25;4.8;;;;;;;42.99;26.70996;94752.26;;;;
2020/08/16 14:30:49;;;;;;;5.25;4.8;;;;;;;42.99;26.70996;94752.26;;;;
2020/08/16 14:31:54;;;;;;;5.25;4.8;;;;;;;42.99;26.70996;94752.26;;;;
2020/08/16 14:32:59;;;;;;;5.25;4.8;;;;;;;42.99;26.70996;94752.26;;;;
2020/08/16 14:34:05;;;;;;;5.25;4.8;;;;;;;42.99;26.70996;94752.26;;;;
2020/08/16 14:35:12;;;;;;;5.25;4.8;;;;;;;42.99;26.70996;94752.26;;;;
2020/08/16 14:36:18;;;;;;;5.25;4.8;;;;;;;42.99;26.70996;94752.26;;;;
2020/08/16 14:37:32;;;;;;;5.25;4.8;;;;;;;42.99;26.70996;94752.26;;;;
2020/08/16 14:38:38;;;;;;;5.25;4.8;;;;;;;42.99;26.70996;94752.26;;;;
2020/08/16 14:39:44;;;;;;;5.25;4.8;;;;;;;42.99;26.70996;94752.26;;;;
2020/08/16 14:40:50;;;;;;;5.25;4.8;;;;;;;42.99;26.70996;94752.26;;;;
2020/08/16 14:41:55;;;;;;;5.25;4.8;;;;;;;42.99;26.70996;94752.26;;;;
2020/08/16 14:42:57;;;;;;;5.25;4.8;;;;;;;42.99;26.70996;94752.26;;;;
2020/08/16 14:44:01;;;;;;;5.25;4.8;;;;;;;42.99;26.70996;94752.26;;;;
2020/08/16 14:45:07;;;;;;;5.25;4.8;;;;;;;42.99;26.70996;94752.26;;;;
2020/08/16 14:46:12;;;;;;;5.25;4.8;;;;;;;42.99;26.70996;94752.26;;;;
2020/08/16 14:47:17;;;;;;;5.25;4.8;;;;;;;42.99;26.70996;94752.26;;;;
2020/08/16 14:48:23;;;;;;;5.25;4.8;;;;;;;42.99;26.70996;94752.26;;;;
2020/08/16 14:49:30;;;;;;;5.25;4.8;;;;;;;42.99;26.70996;94752.26;;;;
2020/08/16 14:50:33;;;;;;;5.25;4.8;;;;;;;42.99;26.70996;94752.26;;;;
2020/08/16 14:51:42;;;;;;;5.25;4.8;;;;;;;42.99;26.70996;94752.26;;;;
2020/08/16 14:52:47;;;;;;;5.25;4.8;;;;;;;42.99;26.70996;94752.26;;;;
2020/08/16 14:53:52;;;;;;;5.25;4.8;;;;;;;42.99;26.70996;94752.26;;;;
2020/08/16 14:54:58;;;;;;;5.25;4.8;;;;;;;42.99;26.70996;94752.26;;;;
2020/08/16 14:56:00;;;;;;;5.25;4.8;;;;;;;42.99;26.70996;94752.26;;;;
2020/08/16 14:57:05;;;;;;;5.25;4.8;;;;;;;42.99;26.70996;94752.26;;;;
2020/08/16 14:58:10;;;;;;;5.25;4.8;;;;;;;42.99;26.70996;94752.26;;;;
2020/08/16 14:59:18;;;;;;;5.25;4.8;;;;;;;42.99;26.70996;94752.26;;;;
2020/08/16 15:00:20;;;;;;;5.25;4.8;;;;;;;42.99;26.70996;94752.26;;;;
2020/08/16 15:01:25;;;;;;;5.25;4.8;;;;;;;42.99;26.70996;94752.26;;;;
2020/08/16 15:02:31;;;;;;;5.25;4.8;;;;;;;42.99;26.70996;94752.26;;;;
2020/08/16 15:03:38;;;;;;;5.25;4.8;;;;;;;42.99;26.70996;94752.26;;;;
2020/08/16 15:04:43;;;;;;;4.8;4.4;;;;;;;39.17;28.60742;94724.75;;;;
2020/08/16 15:05:49;;;;;;;4.8;4.4;;;;;;;39.17;28.60742;94724.75;;;;
2020/08/16 15:06:54;;;;;;;4.8;4.4;;;;;;;39.17;28.60742;94724.75;;;;
2020/08/16 15:07:59;;;;;;;4.8;4.4;;;;;;;39.17;28.60742;94724.75;;;;
2020/08/16 15:09:06;;;;;;;4.8;4.4;;;;;;;39.17;28.60742;94724.75;;;;
2020/08/16 15:10:11;;;;;;;4.8;4.4;;;;;;;39.17;28.60742;94724.75;;;;
2020/08/16 15:11:16;;;;;;;4.8;4.4;;;;;;;39.17;28.60742;94724.75;;;;
2020/08/16 15:12:21;;;;;;;4.8;4.4;;;;;;;39.17;28.60742;94724.75;;;;
2020/08/16 15:13:27;;;;;;;4.8;4.4;;;;;;;39.17;28.60742;94724.75;;;;
2020/08/16 15:14:32;;;;;;;5.349999;4.849999;;;;;;;37.6;29.97363;94725.72;;;;
2020/08/16 15:15:40;;;;;;;5.349999;4.849999;;;;;;;37.6;29.97363;94725.72;;;;
2020/08/16 15:16:48;;;;;;;5.349999;4.849999;;;;;;;37.6;29.97363;94725.72;;;;
2020/08/16 15:17:59;;;;;;;5.349999;4.849999;;;;;;;37.6;29.97363;94725.72;;;;
2020/08/16 15:19:02;;;;;;;5.349999;4.849999;;;;;;;37.6;29.97363;94725.72;;;;
2020/08/16 15:20:05;;;;;;;5.349999;4.849999;;;;;;;37.6;29.97363;94725.72;;;;
2020/08/16 15:21:11;;;;;;;5.349999;4.849999;;;;;;;37.6;29.97363;94725.72;;;;
2020/08/16 15:22:15;;;;;;;5.349999;4.849999;;;;;;;37.6;29.97363;94725.72;;;;
2020/08/16 15:23:21;;;;;;;5.349999;4.849999;;;;;;;37.6;29.97363;94725.72;;;;
2020/08/16 15:24:27;;;;;;;5.349999;4.849999;;;;;;;37.6;29.97363;94725.72;;;;
2020/08/16 15:25:34;;;;;;;5.349999;4.849999;;;;;;;37.6;29.97363;94725.72;;;;
2020/08/16 15:26:39;;;;;;;5.349999;4.849999;;;;;;;37.6;29.97363;94725.72;;;;
2020/08/16 15:27:44;;;;;;;5.349999;4.849999;;;;;;;37.6;29.97363;94725.72;;;;
2020/08/16 15:28:51;;;;;;;5.349999;4.849999;;;;;;;37.6;29.97363;94725.72;;;;
2020/08/16 15:29:56;;;;;;;5.349999;4.849999;;;;;;;37.6;29.97363;94725.72;;;;
2020/08/16 15:30:58;;;;;;;5.349999;4.849999;;;;;;;37.6;29.97363;94725.72;;;;
2020/08/16 15:32:06;;;;;;;5.349999;4.849999;;;;;;;37.6;29.97363;94725.72;;;;
2020/08/16 15:33:14;;;;;;;5.349999;4.849999;;;;;;;37.6;29.97363;94725.72;;;;
2020/08/16 15:34:18;;;;;;;5.349999;4.849999;;;;;;;37.6;29.97363;94725.72;;;;
2020/08/16 15:35:26;;;;;;;5.349999;4.849999;;;;;;;37.6;29.97363;94725.72;;;;
2020/08/16 15:36:32;;;;;;;4.95;4.649999;;;;;;;34.27;33.62109;94706.13;;;;
2020/08/16 15:37:38;;;;;;;4.95;4.649999;;;;;;;34.27;33.62109;94706.13;;;;
2020/08/16 15:38:43;;;;;;;4.95;4.649999;;;;;;;34.27;33.62109;94706.13;;;;
2020/08/16 15:39:48;;;;;;;4.95;4.649999;;;;;;;34.27;33.62109;94706.13;;;;
2020/08/16 15:40:52;;;;;;;4.95;4.649999;;;;;;;34.27;33.62109;94706.13;;;;
2020/08/16 15:41:58;;;;;;;4.95;4.649999;;;;;;;34.27;33.62109;94706.13;;;;
2020/08/16 15:43:03;;;;;;;4.95;4.649999;;;;;;;34.27;33.62109;94706.13;;;;
2020/08/16 15:44:06;;;;;;;4.95;4.649999;;;;;;;34.27;33.62109;94706.13;;;;
2020/08/16 15:45:11;;;;;;;4.95;4.649999;;;;;;;34.27;33.62109;94706.13;;;;
2020/08/16 15:46:20;;;;;;;4.95;4.649999;;;;;;;34.27;33.62109;94706.13;;;;
2020/08/16 15:47:25;;;;;;;5.15;4.65;;;;;;;32.87;35.3623;94697.05;;;;
2020/08/16 15:48:30;;;;;;;5.15;4.65;;;;;;;32.87;35.3623;94697.05;;;;
2020/08/16 15:49:36;;;;;;;5.15;4.65;;;;;;;32.87;35.3623;94697.05;;;;
2020/08/16 15:50:41;;;;;;;5.15;4.65;;;;;;;32.87;35.3623;94697.05;;;;
2020/08/16 15:51:46;;;;;;;5.15;4.65;;;;;;;32.87;35.3623;94697.05;;;;
2020/08/16 15:52:51;;;;;;;5.15;4.65;;;;;;;32.87;35.3623;94697.05;;;;
2020/08/16 15:53:55;;;;;;;5.15;4.65;;;;;;;32.87;35.3623;94697.05;;;;
2020/08/16 15:55:01;;;;;;;5.15;4.65;;;;;;;32.87;35.3623;94697.05;;;;
2020/08/16 15:56:07;;;;;;;5.15;4.65;;;;;;;32.87;35.3623;94697.05;;;;
2020/08/16 15:57:18;;;;;;;6.7;4.9;;;;;;;31.83;36.88379;94692.22;;;;
2020/08/16 15:58:26;;;;;;;6.7;4.9;;;;;;;31.83;36.88379;94692.22;;;;
2020/08/16 15:59:31;;;;;;;6.7;4.9;;;;;;;31.83;36.88379;94692.22;;;;
2020/08/16 16:00:36;;;;;;;6.7;4.9;;;;;;;31.83;36.88379;94692.22;;;;
2020/08/16 16:01:41;;;;;;;6.7;4.9;;;;;;;31.83;36.88379;94692.22;;;;
2020/08/16 16:02:45;;;;;;;6.7;4.9;;;;;;;31.83;36.88379;94692.22;;;;
2020/08/16 16:03:52;;;;;;;6.7;4.9;;;;;;;31.83;36.88379;94692.22;;;;
2020/08/16 16:04:57;;;;;;;6.7;4.9;;;;;;;31.83;36.88379;94692.22;;;;
2020/08/16 16:05:58;;;;;;;6.7;4.9;;;;;;;31.83;36.88379;94692.22;;;;
2020/08/16 16:07:03;;;;;;;6.7;4.9;;;;;;;31.83;36.88379;94692.22;;;;
2020/08/16 16:08:08;;;;;;;6.7;4.9;;;;;;;31.83;36.88379;94692.22;;;;
2020/08/16 16:09:13;;;;;;;6.7;4.9;;;;;;;31.83;36.88379;94692.22;;;;
2020/08/16 16:10:23;;;;;;;6.7;4.9;;;;;;;31.83;36.88379;94692.22;;;;
2020/08/16 16:11:33;;;;;;;6.7;4.9;;;;;;;31.83;36.88379;94692.22;;;;
2020/08/16 16:12:39;;;;;;;6.7;4.9;;;;;;;31.83;36.88379;94692.22;;;;
2020/08/16 16:13:44;;;;;;;6.7;4.9;;;;;;;31.83;36.88379;94692.22;;;;
2020/08/16 16:14:50;;;;;;;6.7;4.9;;;;;;;31.83;36.88379;94692.22;;;;
2020/08/16 16:15:54;;;;;;;6.7;4.9;;;;;;;31.83;36.88379;94692.22;;;;
2020/08/16 16:16:55;;;;;;;6.7;4.9;;;;;;;31.83;36.88379;94692.22;;;;
2020/08/16 16:18:01;;;;;;;6.7;4.9;;;;;;;31.83;36.88379;94692.22;;;;
2020/08/16 16:19:06;;;;;;;4.900001;4.599999;;;;;;;30.24;39.36621;94690.14;;;;
2020/08/16 16:20:10;;;;;;;4.900001;4.599999;;;;;;;30.24;39.36621;94690.14;;;;
2020/08/16 16:21:16;;;;;;;4.900001;4.599999;;;;;;;30.24;39.36621;94690.14;;;;
2020/08/16 16:22:30;;;;;;;4.900001;4.599999;;;;;;;30.24;39.36621;94690.14;;;;
2020/08/16 16:23:35;;;;;;;4.900001;4.599999;;;;;;;30.24;39.36621;94690.14;;;;
2020/08/16 16:24:40;;;;;;;4.900001;4.599999;;;;;;;30.24;39.36621;94690.14;;;;
2020/08/16 16:25:48;;;;;;;4.900001;4.599999;;;;;;;30.24;39.36621;94690.14;;;;
2020/08/16 16:26:52;;;;;;;4.900001;4.599999;;;;;;;30.24;39.36621;94690.14;;;;
2020/08/16 16:27:57;;;;;;;4.900001;4.599999;;;;;;;30.24;39.36621;94690.14;;;;
2020/08/16 16:29:06;;;;;;;5.1;4.6;;;;;;;29.56;40.78613;94688.37;;;;
2020/08/16 16:30:12;;;;;;;5.1;4.6;;;;;;;29.56;40.78613;94688.37;;;;
2020/08/16 16:31:20;;;;;;;5.1;4.6;;;;;;;29.56;40.78613;94688.37;;;;
2020/08/16 16:32:26;;;;;;;5.1;4.6;;;;;;;29.56;40.78613;94688.37;;;;
2020/08/16 16:33:31;;;;;;;5.1;4.6;;;;;;;29.56;40.78613;94688.37;;;;
2020/08/16 16:34:36;;;;;;;5.1;4.6;;;;;;;29.56;40.78613;94688.37;;;;
2020/08/16 16:35:42;;;;;;;5.1;4.6;;;;;;;29.56;40.78613;94688.37;;;;
2020/08/16 16:36:47;;;;;;;5.1;4.6;;;;;;;29.56;40.78613;94688.37;;;;
2020/08/16 16:37:51;;;;;;;5.1;4.6;;;;;;;29.56;40.78613;94688.37;;;;
2020/08/16 16:38:57;;;;;;;5.1;4.6;;;;;;;29.56;40.78613;94688.37;;;;
2020/08/16 16:39:58;;;;;;;5.349999;4.849999;;;;;;;28.96;42.10742;94679.81;;;;
2020/08/16 16:41:02;;;;;;;5.349999;4.849999;;;;;;;28.96;42.10742;94679.81;;;;
2020/08/16 16:42:08;;;;;;;5.349999;4.849999;;;;;;;28.96;42.10742;94679.81;;;;
2020/08/16 16:43:12;;;;;;;5.349999;4.849999;;;;;;;28.96;42.10742;94679.81;;;;
2020/08/16 16:44:16;;;;;;;5.349999;4.849999;;;;;;;28.96;42.10742;94679.81;;;;
2020/08/16 16:45:23;;;;;;;5.349999;4.849999;;;;;;;28.96;42.10742;94679.81;;;;
2020/08/16 16:46:29;;;;;;;5.349999;4.849999;;;;;;;28.96;42.10742;94679.81;;;;
2020/08/16 16:47:34;;;;;;;5.349999;4.849999;;;;;;;28.96;42.10742;94679.81;;;;
2020/08/16 16:48:39;;;;;;;5.349999;4.849999;;;;;;;28.96;42.10742;94679.81;;;;
2020/08/16 16:49:45;;;;;;;5.349999;4.849999;;;;;;;28.96;42.10742;94679.81;;;;
2020/08/16 16:50:48;;;;;;;5.349999;4.849999;;;;;;;28.96;42.10742;94679.81;;;;
2020/08/16 16:51:53;;;;;;;5.349999;4.849999;;;;;;;28.96;42.10742;94679.81;;;;
2020/08/16 16:52:58;;;;;;;5.349999;4.849999;;;;;;;28.96;42.10742;94679.81;;;;
2020/08/16 16:54:01;;;;;;;5.349999;4.849999;;;;;;;28.96;42.10742;94679.81;;;;
2020/08/16 16:55:07;;;;;;;5.349999;4.849999;;;;;;;28.96;42.10742;94679.81;;;;
2020/08/16 16:56:12;;;;;;;5.349999;4.849999;;;;;;;28.96;42.10742;94679.81;;;;
2020/08/16 16:57:19;;;;;;;5.349999;4.849999;;;;;;;28.96;42.10742;94679.81;;;;
2020/08/16 16:58:24;;;;;;;5.349999;4.849999;;;;;;;28.96;42.10742;94679.81;;;;
2020/08/16 16:59:36;;;;;;;5.349999;4.849999;;;;;;;28.96;42.10742;94679.81;;;;
2020/08/16 17:00:42;;;;;;;5.349999;4.849999;;;;;;;28.96;42.10742;94679.81;;;;
2020/08/16 17:01:47;;;;;;;5.349999;4.849999;;;;;;;28.96;42.10742;94679.81;;;;
2020/08/16 17:02:54;;;;;;;5.349999;4.849999;;;;;;;28.96;42.10742;94679.81;;;;
2020/08/16 17:04:00;;;;;;;5.349999;4.849999;;;;;;;28.96;42.10742;94679.81;;;;
2020/08/16 17:05:01;;;;;;;5.349999;4.849999;;;;;;;28.96;42.10742;94679.81;;;;
2020/08/16 17:06:13;;;;;;;5.349999;4.849999;;;;;;;28.96;42.10742;94679.81;;;;
2020/08/16 17:07:18;;;;;;;5.349999;4.849999;;;;;;;28.96;42.10742;94679.81;;;;
2020/08/16 17:08:25;;;;;;;5.349999;4.849999;;;;;;;28.96;42.10742;94679.81;;;;
2020/08/16 17:09:30;;;;;;;5.349999;4.849999;;;;;;;28.96;42.10742;94679.81;;;;
2020/08/16 17:10:35;;;;;;;5.349999;4.849999;;;;;;;28.96;42.10742;94679.81;;;;
2020/08/16 17:11:41;;;;;;;5.349999;4.849999;;;;;;;28.96;42.10742;94679.81;;;;
2020/08/16 17:12:47;;;;;;;5.349999;4.849999;;;;;;;28.96;42.10742;94679.81;;;;
2020/08/16 17:13:52;;;;;;;5.349999;4.849999;;;;;;;28.96;42.10742;94679.81;;;;
2020/08/16 17:14:57;;;;;;;5.349999;4.849999;;;;;;;28.96;42.10742;94679.81;;;;
2020/08/16 17:16:00;;;;;;;5.349999;4.849999;;;;;;;28.96;42.10742;94679.81;;;;
2020/08/16 17:17:04;;;;;;;5.349999;4.849999;;;;;;;28.96;42.10742;94679.81;;;;
2020/08/16 17:18:09;;;;;;;5.349999;4.849999;;;;;;;28.96;42.10742;94679.81;;;;
2020/08/16 17:19:14;;;;;;;5.349999;4.849999;;;;;;;28.96;42.10742;94679.81;;;;
2020/08/16 17:20:22;;;;;;;5.349999;4.849999;;;;;;;28.96;42.10742;94679.81;;;;
2020/08/16 17:21:29;;;;;;;5.349999;4.849999;;;;;;;28.96;42.10742;94679.81;;;;
2020/08/16 17:22:33;;;;;;;5.349999;4.849999;;;;;;;28.96;42.10742;94679.81;;;;
2020/08/16 17:23:37;;;;;;;5.349999;4.849999;;;;;;;28.96;42.10742;94679.81;;;;
2020/08/16 17:55:48;;;;;;;6.4;5.8;;;;;;;25.56;50.8877;94691.05;;;;
2020/08/16 17:56:53;;;;;;;6.4;5.8;;;;;;;25.56;50.8877;94691.05;;;;
2020/08/16 17:57:58;;;;;;;6.4;5.8;;;;;;;25.56;50.8877;94691.05;;;;
2020/08/16 17:59:05;;;;;;;6.4;5.8;;;;;;;25.56;50.8877;94691.05;;;;
2020/08/16 18:00:14;;;;;;;6.4;5.8;;;;;;;25.56;50.8877;94691.05;;;;
2020/08/16 18:01:22;;;;;;;6.4;5.8;;;;;;;25.56;50.8877;94691.05;;;;
2020/08/16 18:02:29;;;;;;;6.4;5.8;;;;;;;25.56;50.8877;94691.05;;;;
2020/08/16 18:03:37;;;;;;;6.4;5.8;;;;;;;25.56;50.8877;94691.05;;;;
2020/08/16 18:04:42;;;;;;;6.4;5.8;;;;;;;25.56;50.8877;94691.05;;;;
2020/08/16 18:05:47;;;;;;;6.4;5.8;;;;;;;25.56;50.8877;94691.05;;;;
2020/08/16 18:06:52;;;;;;;6.4;5.8;;;;;;;25.56;50.8877;94691.05;;;;
2020/08/16 18:07:57;;;;;;;6.4;5.8;;;;;;;25.56;50.8877;94691.05;;;;
2020/08/16 18:09:02;;;;;;;6.4;5.8;;;;;;;25.56;50.8877;94691.05;;;;
2020/08/16 18:10:06;;;;;;;6.4;5.8;;;;;;;25.56;50.8877;94691.05;;;;
2020/08/16 18:11:11;;;;;;;6.4;5.8;;;;;;;25.56;50.8877;94691.05;;;;
2020/08/16 18:12:16;;;;;;;6.4;5.8;;;;;;;25.56;50.8877;94691.05;;;;
2020/08/16 18:13:21;;;;;;;6.4;5.8;;;;;;;25.56;50.8877;94691.05;;;;
2020/08/16 18:14:27;;;;;;;6.4;5.8;;;;;;;25.56;50.8877;94691.05;;;;
2020/08/16 18:15:32;;;;;;;6.4;5.8;;;;;;;25.56;50.8877;94691.05;;;;
2020/08/16 18:16:38;;;;;;;6.4;5.8;;;;;;;25.56;50.8877;94691.05;;;;
2020/08/16 18:17:43;;;;;;;6.4;5.8;;;;;;;25.56;50.8877;94691.05;;;;
2020/08/16 18:18:48;;;;;;;6.4;5.8;;;;;;;25.56;50.8877;94691.05;;;;
2020/08/16 18:19:53;;;;;;;6.4;5.8;;;;;;;25.56;50.8877;94691.05;;;;
2020/08/16 18:20:55;;;;;;;6.4;5.8;;;;;;;25.56;50.8877;94691.05;;;;
2020/08/16 18:22:01;;;;;;;6.4;5.8;;;;;;;25.56;50.8877;94691.05;;;;
2020/08/16 18:23:06;;;;;;;6.4;5.8;;;;;;;25.56;50.8877;94691.05;;;;
2020/08/16 18:24:08;;;;;;;6.4;5.8;;;;;;;25.56;50.8877;94691.05;;;;
2020/08/16 18:25:15;;;;;;;6.4;5.8;;;;;;;25.56;50.8877;94691.05;;;;
2020/08/16 18:26:25;;;;;;;6.4;5.8;;;;;;;25.56;50.8877;94691.05;;;;
2020/08/16 18:27:30;;;;;;;6.4;5.8;;;;;;;25.56;50.8877;94691.05;;;;
2020/08/16 18:28:36;;;;;;;6.15;5.65;;;;;;;24.19;54.67676;94694.27;;;;
2020/08/16 18:29:43;;;;;;;6.15;5.65;;;;;;;24.19;54.67676;94694.27;;;;
2020/08/16 18:30:48;;;;;;;6.15;5.65;;;;;;;24.19;54.67676;94694.27;;;;
2020/08/16 18:31:56;;;;;;;6.15;5.65;;;;;;;24.19;54.67676;94694.27;;;;
2020/08/16 18:33:02;;;;;;;6.15;5.65;;;;;;;24.19;54.67676;94694.27;;;;
2020/08/16 18:34:06;;;;;;;6.15;5.65;;;;;;;24.19;54.67676;94694.27;;;;
2020/08/16 18:35:11;;;;;;;6.15;5.65;;;;;;;24.19;54.67676;94694.27;;;;
2020/08/16 18:36:16;;;;;;;6.15;5.65;;;;;;;24.19;54.67676;94694.27;;;;
2020/08/16 18:37:27;;;;;;;6.15;5.65;;;;;;;24.19;54.67676;94694.27;;;;
2020/08/16 18:38:33;;;;;;;6.15;5.65;;;;;;;24.19;54.67676;94694.27;;;;
2020/08/16 18:39:37;;;;;;;6.5;5.900001;;;;;;;23.71;55.99512;94698.25;;;;
2020/08/16 18:40:42;;;;;;;6.5;5.900001;;;;;;;23.71;55.99512;94698.25;;;;
2020/08/16 18:41:49;;;;;;;6.5;5.900001;;;;;;;23.71;55.99512;94698.25;;;;
2020/08/16 18:42:55;;;;;;;6.5;5.900001;;;;;;;23.71;55.99512;94698.25;;;;
2020/08/16 18:43:55;;;;;;;6.5;5.900001;;;;;;;23.71;55.99512;94698.25;;;;
2020/08/16 18:45:02;;;;;;;6.5;5.900001;;;;;;;23.71;55.99512;94698.25;;;;
2020/08/16 18:46:08;;;;;;;6.5;5.900001;;;;;;;23.71;55.99512;94698.25;;;;
2020/08/16 18:47:13;;;;;;;6.5;5.900001;;;;;;;23.71;55.99512;94698.25;;;;
2020/08/16 18:48:19;;;;;;;6.5;5.900001;;;;;;;23.71;55.99512;94698.25;;;;
2020/08/16 18:49:24;;;;;;;6.5;5.900001;;;;;;;23.71;55.99512;94698.25;;;;
2020/08/16 18:50:33;;;;;;;6.65;6.050001;;;;;;;23.41;57.16406;94710.4;;;;
2020/08/16 18:51:39;;;;;;;6.65;6.050001;;;;;;;23.41;57.16406;94710.4;;;;
2020/08/16 18:52:43;;;;;;;6.65;6.050001;;;;;;;23.41;57.16406;94710.4;;;;
2020/08/16 18:53:52;;;;;;;6.65;6.050001;;;;;;;23.41;57.16406;94710.4;;;;
2020/08/16 18:54:57;;;;;;;6.65;6.050001;;;;;;;23.41;57.16406;94710.4;;;;
2020/08/16 18:56:03;;;;;;;6.65;6.050001;;;;;;;23.41;57.16406;94710.4;;;;
2020/08/16 18:57:09;;;;;;;6.65;6.050001;;;;;;;23.41;57.16406;94710.4;;;;
2020/08/16 18:58:18;;;;;;;6.65;6.050001;;;;;;;23.41;57.16406;94710.4;;;;
2020/08/16 18:59:24;;;;;;;6.65;6.050001;;;;;;;23.41;57.16406;94710.4;;;;
2020/08/16 19:00:30;;;;;;;6.65;6.050001;;;;;;;23.41;57.16406;94710.4;;;;
2020/08/16 19:01:36;;;;;;;6.65;6.050001;;;;;;;23.41;57.16406;94710.4;;;;
2020/08/16 19:02:42;;;;;;;6.65;6.050001;;;;;;;23.41;57.16406;94710.4;;;;
2020/08/16 19:03:48;;;;;;;6.65;6.050001;;;;;;;23.41;57.16406;94710.4;;;;
2020/08/16 19:04:54;;;;;;;6.65;6.050001;;;;;;;23.41;57.16406;94710.4;;;;
2020/08/16 19:05:58;;;;;;;6.65;6.050001;;;;;;;23.41;57.16406;94710.4;;;;
2020/08/16 19:07:03;;;;;;;6.65;6.050001;;;;;;;23.41;57.16406;94710.4;;;;
2020/08/16 19:08:10;;;;;;;6.65;6.050001;;;;;;;23.41;57.16406;94710.4;;;;
2020/08/16 19:09:12;;;;;;;6.65;6.050001;;;;;;;23.41;57.16406;94710.4;;;;
2020/08/16 19:10:17;;;;;;;6.65;6.050001;;;;;;;23.41;57.16406;94710.4;;;;
2020/08/16 19:11:27;;;;;;;6.65;6.050001;;;;;;;23.41;57.16406;94710.4;;;;
2020/08/16 19:12:44;;;;;;;8.199999;7.4;;;;;;;22.85;59.25977;94740.95;;;;
2020/08/16 19:13:48;;;;;;;8.199999;7.4;;;;;;;22.85;59.25977;94740.95;;;;
2020/08/16 19:14:57;;;;;;;8.199999;7.4;;;;;;;22.85;59.25977;94740.95;;;;
2020/08/16 19:16:01;;;;;;;8.199999;7.4;;;;;;;22.85;59.25977;94740.95;;;;
2020/08/16 19:17:09;;;;;;;8.199999;7.4;;;;;;;22.85;59.25977;94740.95;;;;
2020/08/16 19:18:14;;;;;;;8.199999;7.4;;;;;;;22.85;59.25977;94740.95;;;;
2020/08/16 19:19:15;;;;;;;8.199999;7.4;;;;;;;22.85;59.25977;94740.95;;;;
2020/08/16 19:20:21;;;;;;;8.199999;7.4;;;;;;;22.85;59.25977;94740.95;;;;
2020/08/16 19:21:29;;;;;;;8.199999;7.4;;;;;;;22.85;59.25977;94740.95;;;;
2020/08/16 19:22:34;;;;;;;8.199999;7.4;;;;;;;22.85;59.25977;94740.95;;;;
2020/08/16 19:23:39;;;;;;;8.199999;7.4;;;;;;;22.85;59.25977;94740.95;;;;
2020/08/16 19:24:43;;;;;;;8.199999;7.4;;;;;;;22.85;59.25977;94740.95;;;;
2020/08/16 19:25:50;;;;;;;8.199999;7.4;;;;;;;22.85;59.25977;94740.95;;;;
2020/08/16 19:26:55;;;;;;;8.199999;7.4;;;;;;;22.85;59.25977;94740.95;;;;
2020/08/16 19:27:59;;;;;;;8.199999;7.4;;;;;;;22.85;59.25977;94740.95;;;;
2020/08/16 19:29:06;;;;;;;8.199999;7.4;;;;;;;22.85;59.25977;94740.95;;;;
2020/08/16 19:30:09;;;;;;;8.199999;7.4;;;;;;;22.85;59.25977;94740.95;;;;
2020/08/16 19:31:14;;;;;;;8.199999;7.4;;;;;;;22.85;59.25977;94740.95;;;;
2020/08/16 19:32:19;;;;;;;8.199999;7.4;;;;;;;22.85;59.25977;94740.95;;;;
2020/08/16 19:33:23;;;;;;;8.9;8.050001;;;;;;;22.38;61.6377;94739.18;;;;
2020/08/16 19:34:29;;;;;;;8.9;8.050001;;;;;;;22.38;61.6377;94739.18;;;;
2020/08/16 19:35:36;;;;;;;8.9;8.050001;;;;;;;22.38;61.6377;94739.18;;;;
2020/08/16 19:36:40;;;;;;;8.9;8.050001;;;;;;;22.38;61.6377;94739.18;;;;
2020/08/16 19:37:46;;;;;;;8.9;8.050001;;;;;;;22.38;61.6377;94739.18;;;;
2020/08/16 19:38:51;;;;;;;8.9;8.050001;;;;;;;22.38;61.6377;94739.18;;;;
2020/08/16 19:39:54;;;;;;;8.9;8.050001;;;;;;;22.38;61.6377;94739.18;;;;
2020/08/16 19:40:57;;;;;;;8.9;8.050001;;;;;;;22.38;61.6377;94739.18;;;;
2020/08/16 19:42:02;;;;;;;8.9;8.050001;;;;;;;22.38;61.6377;94739.18;;;;
2020/08/16 19:43:07;;;;;;;8.9;8.050001;;;;;;;22.38;61.6377;94739.18;;;;
2020/08/16 19:44:11;;;;;;;9.249999;8.35;;;;;;;22.11;62.82422;94744.79;;;;
2020/08/16 19:45:17;;;;;;;9.249999;8.35;;;;;;;22.11;62.82422;94744.79;;;;
2020/08/16 19:46:22;;;;;;;9.249999;8.35;;;;;;;22.11;62.82422;94744.79;;;;
2020/08/16 19:47:27;;;;;;;9.249999;8.35;;;;;;;22.11;62.82422;94744.79;;;;
2020/08/16 19:48:33;;;;;;;9.249999;8.35;;;;;;;22.11;62.82422;94744.79;;;;
2020/08/16 19:49:38;;;;;;;9.249999;8.35;;;;;;;22.11;62.82422;94744.79;;;;
2020/08/16 19:50:43;;;;;;;9.249999;8.35;;;;;;;22.11;62.82422;94744.79;;;;
2020/08/16 19:51:47;;;;;;;9.249999;8.35;;;;;;;22.11;62.82422;94744.79;;;;
2020/08/16 19:52:53;;;;;;;9.249999;8.35;;;;;;;22.11;62.82422;94744.79;;;;
2020/08/16 19:53:59;;;;;;;9.249999;8.35;;;;;;;22.11;62.82422;94744.79;;;;
2020/08/16 19:55:04;;;;;;;9.249999;8.35;;;;;;;22.11;62.82422;94744.79;;;;
2020/08/16 19:56:11;;;;;;;9.249999;8.35;;;;;;;22.11;62.82422;94744.79;;;;
2020/08/16 19:57:16;;;;;;;9.249999;8.35;;;;;;;22.11;62.82422;94744.79;;;;
2020/08/16 19:58:21;;;;;;;9.249999;8.35;;;;;;;22.11;62.82422;94744.79;;;;
2020/08/16 19:59:27;;;;;;;9.249999;8.35;;;;;;;22.11;62.82422;94744.79;;;;
2020/08/16 20:00:32;;;;;;;9.249999;8.35;;;;;;;22.11;62.82422;94744.79;;;;
2020/08/16 20:01:39;;;;;;;9.249999;8.35;;;;;;;22.11;62.82422;94744.79;;;;
2020/08/16 20:02:45;;;;;;;9.249999;8.35;;;;;;;22.11;62.82422;94744.79;;;;
2020/08/16 20:03:50;;;;;;;9.249999;8.35;;;;;;;22.11;62.82422;94744.79;;;;
2020/08/16 20:04:53;;;;;;;9.249999;8.35;;;;;;;22.11;62.82422;94744.79;;;;
2020/08/16 20:05:58;;;;;;;9.249999;8.35;;;;;;;22.11;62.82422;94744.79;;;;
2020/08/16 20:07:03;;;;;;;9.249999;8.35;;;;;;;22.11;62.82422;94744.79;;;;
2020/08/16 20:08:08;;;;;;;9.249999;8.35;;;;;;;22.11;62.82422;94744.79;;;;
2020/08/16 20:09:13;;;;;;;9.249999;8.35;;;;;;;22.11;62.82422;94744.79;;;;
2020/08/16 20:10:22;;;;;;;9.249999;8.35;;;;;;;22.11;62.82422;94744.79;;;;
2020/08/16 20:11:28;;;;;;;9.249999;8.35;;;;;;;22.11;62.82422;94744.79;;;;
2020/08/16 20:12:34;;;;;;;9.249999;8.35;;;;;;;22.11;62.82422;94744.79;;;;
2020/08/16 20:13:39;;;;;;;9.249999;8.35;;;;;;;22.11;62.82422;94744.79;;;;
2020/08/16 20:14:44;;;;;;;9.249999;8.35;;;;;;;22.11;62.82422;94744.79;;;;
2020/08/16 20:15:48;;;;;;;9.249999;8.35;;;;;;;22.11;62.82422;94744.79;;;;
2020/08/16 20:16:53;;;;;;;9.249999;8.35;;;;;;;22.11;62.82422;94744.79;;;;
2020/08/16 20:17:58;;;;;;;9.249999;8.35;;;;;;;22.11;62.82422;94744.79;;;;
2020/08/16 20:19:03;;;;;;;9.249999;8.35;;;;;;;22.11;62.82422;94744.79;;;;
2020/08/16 20:20:05;;;;;;;9.249999;8.35;;;;;;;22.11;62.82422;94744.79;;;;
2020/08/16 20:21:11;;;;;;;9.249999;8.35;;;;;;;22.11;62.82422;94744.79;;;;
2020/08/16 20:22:16;;;;;;;9.249999;8.35;;;;;;;22.11;62.82422;94744.79;;;;
2020/08/16 20:23:29;;;;;;;9.249999;8.35;;;;;;;22.11;62.82422;94744.79;;;;
2020/08/16 20:24:34;;;;;;;9.249999;8.35;;;;;;;22.11;62.82422;94744.79;;;;
2020/08/16 20:25:41;;;;;;;9.249999;8.35;;;;;;;22.11;62.82422;94744.79;;;;
2020/08/16 20:26:48;;;;;;;9.249999;8.35;;;;;;;22.11;62.82422;94744.79;;;;
2020/08/16 20:27:53;;;;;;;9.249999;8.35;;;;;;;22.11;62.82422;94744.79;;;;
2020/08/16 21:21:59;;;;;;;11.9;10.75;;;;;;;20.17;72.83301;94720.28;;;;
2020/08/16 21:23:05;;;;;;;11.9;10.75;;;;;;;20.17;72.83301;94720.28;;;;
2020/08/16 21:24:12;;;;;;;11.9;10.75;;;;;;;20.17;72.83301;94720.28;;;;
2020/08/16 21:25:16;;;;;;;11.9;10.75;;;;;;;20.17;72.83301;94720.28;;;;
2020/08/16 21:26:23;;;;;;;11.9;10.75;;;;;;;20.17;72.83301;94720.28;;;;
2020/08/16 21:27:31;;;;;;;11.9;10.75;;;;;;;20.17;72.83301;94720.28;;;;
2020/08/16 21:28:38;;;;;;;11.9;10.75;;;;;;;20.17;72.83301;94720.28;;;;
2020/08/16 21:29:44;;;;;;;11.9;10.75;;;;;;;20.17;72.83301;94720.28;;;;
2020/08/16 21:30:50;;;;;;;11.9;10.75;;;;;;;20.17;72.83301;94720.28;;;;
2020/08/16 21:31:56;;;;;;;11.9;10.75;;;;;;;20.17;72.83301;94720.28;;;;
2020/08/16 21:33:00;;;;;;;11.9;10.75;;;;;;;20.17;72.83301;94720.28;;;;
2020/08/16 21:34:15;;;;;;;11.9;10.75;;;;;;;20.17;72.83301;94720.28;;;;
2020/08/16 21:35:22;;;;;;;11.9;10.75;;;;;;;20.17;72.83301;94720.28;;;;
2020/08/16 21:36:28;;;;;;;11.9;10.75;;;;;;;20.17;72.83301;94720.28;;;;
2020/08/16 21:37:40;;;;;;;11.9;10.75;;;;;;;20.17;72.83301;94720.28;;;;
2020/08/16 21:38:49;;;;;;;11.9;10.75;;;;;;;20.17;72.83301;94720.28;;;;
2020/08/16 21:39:54;;;;;;;11.9;10.75;;;;;;;20.17;72.83301;94720.28;;;;
2020/08/16 21:40:59;;;;;;;11.9;10.75;;;;;;;20.17;72.83301;94720.28;;;;
2020/08/16 21:42:07;;;;;;;11.9;10.75;;;;;;;20.17;72.83301;94720.28;;;;
2020/08/16 21:43:11;;;;;;;11.9;10.75;;;;;;;20.17;72.83301;94720.28;;;;
2020/08/16 21:44:18;;;;;;;11.9;10.75;;;;;;;20.17;72.83301;94720.28;;;;